sensor_id;sensor_type;location;lat;lon;timestamp;temperature;humidity
48686;DHT22;34485;51.536;3.816;2022-12-24T00:00:56;9.40;99.90
48686;DHT22;34485;51.536;3.816;2022-12-24T00:03:23;9.30;99.90
48686;DHT22;34485;51.536;3.816;2022-12-24T00:05:48;9.30;99.90
48686;DHT22;34485;51.536;3.816;2022-12-24T00:08:14;9.30;99.90
48686;DHT22;34485;51.536;3.816;2022-12-24T00:10:39;9.30;99.90
48686;DHT22;34485;51.536;3.816;2022-12-24T00:13:05;9.20;99.90
48686;DHT22;34485;51.536;3.816;2022-12-24T00:15:30;9.20;99.90
48686;DHT22;34485;51.536;3.816;2022-12-24T00:17:56;9.20;99.90
48686;DHT22;34485;51.536;3.816;2022-12-24T00:20:22;9.30;99.90
48686;DHT22;34485;51.536;3.816;2022-12-24T00:22:49;9.30;99.90
48686;DHT22;34485;51.536;3.816;2022-12-24T00:25:14;9.30;99.90
48686;DHT22;34485;51.536;3.816;2022-12-24T00:27:40;9.30;99.90
48686;DHT22;34485;51.536;3.816;2022-12-24T00:30:06;9.30;99.90
48686;DHT22;34485;51.536;3.816;2022-12-24T00:32:32;9.30;99.90
48686;DHT22;34485;51.536;3.816;2022-12-24T00:34:57;9.40;99.90
48686;DHT22;34485;51.536;3.816;2022-12-24T00:37:23;9.40;99.90
48686;DHT22;34485;51.536;3.816;2022-12-24T00:39:48;9.50;99.90
48686;DHT22;34485;51.536;3.816;2022-12-24T00:42:14;9.60;99.90
48686;DHT22;34485;51.536;3.816;2022-12-24T00:44:39;9.70;99.90
48686;DHT22;34485;51.536;3.816;2022-12-24T00:47:05;9.80;99.90
48686;DHT22;34485;51.536;3.816;2022-12-24T00:49:31;9.90;99.90
48686;DHT22;34485;51.536;3.816;2022-12-24T00:51:56;9.90;99.90
48686;DHT22;34485;51.536;3.816;2022-12-24T00:54:22;10.00;99.90
48686;DHT22;34485;51.536;3.816;2022-12-24T00:56:47;10.00;99.90
48686;DHT22;34485;51.536;3.816;2022-12-24T00:59:13;10.00;99.90
48686;DHT22;34485;51.536;3.816;2022-12-24T01:01:39;9.90;99.90
48686;DHT22;34485;51.536;3.816;2022-12-24T01:04:04;9.90;99.90
48686;DHT22;34485;51.536;3.816;2022-12-24T01:06:48;9.80;99.90
48686;DHT22;34485;51.536;3.816;2022-12-24T01:09:14;9.80;99.90
48686;DHT22;34485;51.536;3.816;2022-12-24T01:11:40;9.80;99.90
48686;DHT22;34485;51.536;3.816;2022-12-24T01:14:05;9.70;99.90
48686;DHT22;34485;51.536;3.816;2022-12-24T01:16:31;9.70;99.90
48686;DHT22;34485;51.536;3.816;2022-12-24T01:18:56;9.60;99.90
48686;DHT22;34485;51.536;3.816;2022-12-24T01:21:22;9.60;99.90
48686;DHT22;34485;51.536;3.816;2022-12-24T01:23:48;9.50;99.90
48686;DHT22;34485;51.536;3.816;2022-12-24T01:26:13;9.50;99.90
48686;DHT22;34485;51.536;3.816;2022-12-24T01:28:39;9.50;99.90
48686;DHT22;34485;51.536;3.816;2022-12-24T01:31:14;9.60;99.90
48686;DHT22;34485;51.536;3.816;2022-12-24T01:33:40;9.70;99.90
48686;DHT22;34485;51.536;3.816;2022-12-24T01:36:06;9.70;99.90
48686;DHT22;34485;51.536;3.816;2022-12-24T01:38:31;9.80;99.90
48686;DHT22;34485;51.536;3.816;2022-12-24T01:40:57;9.80;99.90
48686;DHT22;34485;51.536;3.816;2022-12-24T01:43:41;9.90;99.90
48686;DHT22;34485;51.536;3.816;2022-12-24T01:51:35;10.00;99.90
48686;DHT22;34485;51.536;3.816;2022-12-24T01:54:05;10.00;99.90
48686;DHT22;34485;51.536;3.816;2022-12-24T01:56:33;10.00;99.90
48686;DHT22;34485;51.536;3.816;2022-12-24T01:59:05;10.00;99.90
48686;DHT22;34485;51.536;3.816;2022-12-24T02:01:31;10.10;99.90
48686;DHT22;34485;51.536;3.816;2022-12-24T02:03:57;10.10;99.90
48686;DHT22;34485;51.536;3.816;2022-12-24T02:06:24;10.10;99.90
48686;DHT22;34485;51.536;3.816;2022-12-24T02:08:49;10.10;99.90
48686;DHT22;34485;51.536;3.816;2022-12-24T02:11:18;10.10;99.90
48686;DHT22;34485;51.536;3.816;2022-12-24T02:13:52;10.10;99.90
48686;DHT22;34485;51.536;3.816;2022-12-24T02:16:44;10.10;99.90
48686;DHT22;34485;51.536;3.816;2022-12-24T02:20:02;10.10;99.90
48686;DHT22;34485;51.536;3.816;2022-12-24T02:30:42;10.20;99.90
48686;DHT22;34485;51.536;3.816;2022-12-24T02:33:12;10.20;99.90
48686;DHT22;34485;51.536;3.816;2022-12-24T02:35:56;10.20;99.90
48686;DHT22;34485;51.536;3.816;2022-12-24T02:38:29;10.30;99.90
48686;DHT22;34485;51.536;3.816;2022-12-24T02:41:03;10.30;99.90
48686;DHT22;34485;51.536;3.816;2022-12-24T02:43:34;10.30;99.90
48686;DHT22;34485;51.536;3.816;2022-12-24T02:46:06;10.30;99.90
48686;DHT22;34485;51.536;3.816;2022-12-24T02:48:34;10.30;99.90
48686;DHT22;34485;51.536;3.816;2022-12-24T02:51:05;10.40;99.90
48686;DHT22;34485;51.536;3.816;2022-12-24T02:53:32;10.30;99.90
48686;DHT22;34485;51.536;3.816;2022-12-24T03:07:46;10.00;99.90
48686;DHT22;34485;51.536;3.816;2022-12-24T03:12:51;10.00;99.90
48686;DHT22;34485;51.536;3.816;2022-12-24T03:15:19;10.00;99.90
48686;DHT22;34485;51.536;3.816;2022-12-24T03:17:47;10.00;99.90
48686;DHT22;34485;51.536;3.816;2022-12-24T03:20:20;10.00;99.90
48686;DHT22;34485;51.536;3.816;2022-12-24T03:22:47;10.00;99.90
48686;DHT22;34485;51.536;3.816;2022-12-24T03:25:12;10.00;99.90
48686;DHT22;34485;51.536;3.816;2022-12-24T03:27:38;10.10;99.90
48686;DHT22;34485;51.536;3.816;2022-12-24T03:30:10;10.10;99.90
48686;DHT22;34485;51.536;3.816;2022-12-24T03:32:37;10.10;99.90
48686;DHT22;34485;51.536;3.816;2022-12-24T03:35:03;10.20;99.90
48686;DHT22;34485;51.536;3.816;2022-12-24T03:37:28;10.10;99.90
48686;DHT22;34485;51.536;3.816;2022-12-24T03:39:54;10.10;99.90
48686;DHT22;34485;51.536;3.816;2022-12-24T03:42:20;10.10;99.90
48686;DHT22;34485;51.536;3.816;2022-12-24T03:44:45;10.10;99.90
48686;DHT22;34485;51.536;3.816;2022-12-24T03:47:11;10.10;99.90
48686;DHT22;34485;51.536;3.816;2022-12-24T03:49:36;10.10;99.90
48686;DHT22;34485;51.536;3.816;2022-12-24T03:52:02;10.10;99.90
48686;DHT22;34485;51.536;3.816;2022-12-24T03:54:28;10.10;99.90
48686;DHT22;34485;51.536;3.816;2022-12-24T03:56:53;10.10;99.90
48686;DHT22;34485;51.536;3.816;2022-12-24T03:59:19;10.20;99.90
48686;DHT22;34485;51.536;3.816;2022-12-24T04:01:44;10.20;99.90
48686;DHT22;34485;51.536;3.816;2022-12-24T04:04:10;10.30;99.90
48686;DHT22;34485;51.536;3.816;2022-12-24T04:06:35;10.30;99.90
48686;DHT22;34485;51.536;3.816;2022-12-24T04:09:01;10.30;99.90
48686;DHT22;34485;51.536;3.816;2022-12-24T04:11:30;10.30;99.90
48686;DHT22;34485;51.536;3.816;2022-12-24T04:13:55;10.40;99.90
48686;DHT22;34485;51.536;3.816;2022-12-24T04:16:21;10.40;99.90
48686;DHT22;34485;51.536;3.816;2022-12-24T04:18:47;10.40;99.90
48686;DHT22;34485;51.536;3.816;2022-12-24T04:21:13;10.30;99.90
48686;DHT22;34485;51.536;3.816;2022-12-24T04:23:39;10.20;99.90
48686;DHT22;34485;51.536;3.816;2022-12-24T04:26:07;10.10;99.90
48686;DHT22;34485;51.536;3.816;2022-12-24T04:28:34;10.10;99.90
48686;DHT22;34485;51.536;3.816;2022-12-24T04:31:04;10.10;99.90
48686;DHT22;34485;51.536;3.816;2022-12-24T04:33:30;10.00;99.90
48686;DHT22;34485;51.536;3.816;2022-12-24T04:35:57;10.00;99.90
48686;DHT22;34485;51.536;3.816;2022-12-24T04:38:23;10.00;99.90
48686;DHT22;34485;51.536;3.816;2022-12-24T04:41:00;9.90;99.90
48686;DHT22;34485;51.536;3.816;2022-12-24T04:43:27;9.90;99.90
48686;DHT22;34485;51.536;3.816;2022-12-24T04:45:53;9.90;99.90
48686;DHT22;34485;51.536;3.816;2022-12-24T04:48:18;9.90;99.90
48686;DHT22;34485;51.536;3.816;2022-12-24T04:50:44;9.80;99.90
48686;DHT22;34485;51.536;3.816;2022-12-24T04:53:09;9.80;99.90
48686;DHT22;34485;51.536;3.816;2022-12-24T04:55:35;9.80;99.90
48686;DHT22;34485;51.536;3.816;2022-12-24T04:58:01;9.90;99.90
48686;DHT22;34485;51.536;3.816;2022-12-24T05:00:26;9.80;99.90
48686;DHT22;34485;51.536;3.816;2022-12-24T05:02:52;9.80;99.90
48686;DHT22;34485;51.536;3.816;2022-12-24T05:05:17;9.80;99.90
48686;DHT22;34485;51.536;3.816;2022-12-24T05:07:43;9.70;99.90
48686;DHT22;34485;51.536;3.816;2022-12-24T05:10:09;9.70;99.90
48686;DHT22;34485;51.536;3.816;2022-12-24T05:12:35;9.60;99.90
48686;DHT22;34485;51.536;3.816;2022-12-24T05:15:01;9.60;99.90
48686;DHT22;34485;51.536;3.816;2022-12-24T05:17:26;9.60;99.90
48686;DHT22;34485;51.536;3.816;2022-12-24T05:19:52;9.60;99.90
48686;DHT22;34485;51.536;3.816;2022-12-24T05:22:17;9.50;99.90
48686;DHT22;34485;51.536;3.816;2022-12-24T05:25:02;9.50;99.90
48686;DHT22;34485;51.536;3.816;2022-12-24T05:27:46;9.60;99.90
48686;DHT22;34485;51.536;3.816;2022-12-24T05:30:11;9.60;99.90
48686;DHT22;34485;51.536;3.816;2022-12-24T05:32:37;9.60;99.90
48686;DHT22;34485;51.536;3.816;2022-12-24T05:35:03;9.60;99.90
48686;DHT22;34485;51.536;3.816;2022-12-24T05:37:28;9.60;99.90
48686;DHT22;34485;51.536;3.816;2022-12-24T05:39:54;9.60;99.90
48686;DHT22;34485;51.536;3.816;2022-12-24T05:42:19;9.60;99.90
48686;DHT22;34485;51.536;3.816;2022-12-24T05:44:45;9.60;99.90
48686;DHT22;34485;51.536;3.816;2022-12-24T05:47:11;9.60;99.90
48686;DHT22;34485;51.536;3.816;2022-12-24T05:49:36;9.60;99.90
48686;DHT22;34485;51.536;3.816;2022-12-24T05:52:02;9.60;99.90
48686;DHT22;34485;51.536;3.816;2022-12-24T05:54:27;9.60;99.90
48686;DHT22;34485;51.536;3.816;2022-12-24T05:56:53;9.70;99.90
48686;DHT22;34485;51.536;3.816;2022-12-24T05:59:19;9.70;99.90
48686;DHT22;34485;51.536;3.816;2022-12-24T06:01:44;9.70;99.90
48686;DHT22;34485;51.536;3.816;2022-12-24T06:04:12;9.70;99.90
48686;DHT22;34485;51.536;3.816;2022-12-24T06:06:38;9.70;99.90
48686;DHT22;34485;51.536;3.816;2022-12-24T06:09:03;9.70;99.90
48686;DHT22;34485;51.536;3.816;2022-12-24T06:11:30;9.70;99.90
48686;DHT22;34485;51.536;3.816;2022-12-24T06:13:56;9.70;99.90
48686;DHT22;34485;51.536;3.816;2022-12-24T06:16:23;9.80;99.90
48686;DHT22;34485;51.536;3.816;2022-12-24T06:18:49;9.80;99.90
48686;DHT22;34485;51.536;3.816;2022-12-24T06:21:15;9.70;99.90
48686;DHT22;34485;51.536;3.816;2022-12-24T06:23:43;9.60;99.90
48686;DHT22;34485;51.536;3.816;2022-12-24T06:26:12;9.60;99.90
48686;DHT22;34485;51.536;3.816;2022-12-24T06:28:38;9.50;99.90
48686;DHT22;34485;51.536;3.816;2022-12-24T06:31:05;9.50;99.90
48686;DHT22;34485;51.536;3.816;2022-12-24T06:33:33;9.40;99.90
48686;DHT22;34485;51.536;3.816;2022-12-24T06:35:59;9.50;99.90
48686;DHT22;34485;51.536;3.816;2022-12-24T06:38:25;9.40;99.90
48686;DHT22;34485;51.536;3.816;2022-12-24T06:40:50;9.40;99.90
48686;DHT22;34485;51.536;3.816;2022-12-24T06:43:16;9.40;99.90
48686;DHT22;34485;51.536;3.816;2022-12-24T06:45:46;9.30;99.90
48686;DHT22;34485;51.536;3.816;2022-12-24T06:48:12;9.40;99.90
48686;DHT22;34485;51.536;3.816;2022-12-24T06:50:38;9.30;99.90
48686;DHT22;34485;51.536;3.816;2022-12-24T06:53:04;9.30;99.90
48686;DHT22;34485;51.536;3.816;2022-12-24T06:55:30;9.30;99.90
48686;DHT22;34485;51.536;3.816;2022-12-24T06:57:56;9.20;99.90
48686;DHT22;34485;51.536;3.816;2022-12-24T07:00:22;9.20;99.90
48686;DHT22;34485;51.536;3.816;2022-12-24T07:02:47;9.20;99.90
48686;DHT22;34485;51.536;3.816;2022-12-24T07:05:13;9.10;99.90
48686;DHT22;34485;51.536;3.816;2022-12-24T07:07:40;9.10;99.90
48686;DHT22;34485;51.536;3.816;2022-12-24T07:10:07;9.10;99.90
48686;DHT22;34485;51.536;3.816;2022-12-24T07:12:34;9.10;99.90
48686;DHT22;34485;51.536;3.816;2022-12-24T07:15:00;9.10;99.90
48686;DHT22;34485;51.536;3.816;2022-12-24T07:17:25;9.10;99.90
48686;DHT22;34485;51.536;3.816;2022-12-24T07:19:51;9.10;99.90
48686;DHT22;34485;51.536;3.816;2022-12-24T07:22:17;9.00;99.90
48686;DHT22;34485;51.536;3.816;2022-12-24T07:24:42;9.10;99.90
48686;DHT22;34485;51.536;3.816;2022-12-24T07:27:08;9.10;99.90
48686;DHT22;34485;51.536;3.816;2022-12-24T07:29:34;9.10;99.90
48686;DHT22;34485;51.536;3.816;2022-12-24T07:32:00;9.20;99.90
48686;DHT22;34485;51.536;3.816;2022-12-24T07:34:25;9.30;99.90
48686;DHT22;34485;51.536;3.816;2022-12-24T07:36:51;9.30;99.90
48686;DHT22;34485;51.536;3.816;2022-12-24T07:39:16;9.30;99.90
48686;DHT22;34485;51.536;3.816;2022-12-24T07:41:42;9.20;99.90
48686;DHT22;34485;51.536;3.816;2022-12-24T07:44:11;9.20;99.90
48686;DHT22;34485;51.536;3.816;2022-12-24T07:46:38;9.10;99.90
48686;DHT22;34485;51.536;3.816;2022-12-24T07:49:03;9.10;99.90
48686;DHT22;34485;51.536;3.816;2022-12-24T07:51:29;9.00;99.90
48686;DHT22;34485;51.536;3.816;2022-12-24T07:53:55;9.10;99.90
48686;DHT22;34485;51.536;3.816;2022-12-24T07:56:20;9.10;99.90
48686;DHT22;34485;51.536;3.816;2022-12-24T07:58:46;9.10;99.90
48686;DHT22;34485;51.536;3.816;2022-12-24T08:01:12;9.10;99.90
48686;DHT22;34485;51.536;3.816;2022-12-24T08:03:38;9.10;99.90
48686;DHT22;34485;51.536;3.816;2022-12-24T08:06:04;9.10;99.90
48686;DHT22;34485;51.536;3.816;2022-12-24T08:08:29;9.10;99.90
48686;DHT22;34485;51.536;3.816;2022-12-24T08:11:00;9.10;99.90
48686;DHT22;34485;51.536;3.816;2022-12-24T08:13:27;9.10;99.90
48686;DHT22;34485;51.536;3.816;2022-12-24T08:15:52;9.10;99.90
48686;DHT22;34485;51.536;3.816;2022-12-24T08:18:18;9.10;99.90
48686;DHT22;34485;51.536;3.816;2022-12-24T08:20:44;9.10;99.90
48686;DHT22;34485;51.536;3.816;2022-12-24T08:23:09;9.20;99.90
48686;DHT22;34485;51.536;3.816;2022-12-24T08:25:35;9.20;99.90
48686;DHT22;34485;51.536;3.816;2022-12-24T08:28:01;9.20;99.90
48686;DHT22;34485;51.536;3.816;2022-12-24T08:30:27;9.30;99.90
48686;DHT22;34485;51.536;3.816;2022-12-24T08:32:52;9.30;99.90
48686;DHT22;34485;51.536;3.816;2022-12-24T08:35:19;9.40;99.90
48686;DHT22;34485;51.536;3.816;2022-12-24T08:37:45;9.40;99.90
48686;DHT22;34485;51.536;3.816;2022-12-24T08:40:11;9.40;99.90
48686;DHT22;34485;51.536;3.816;2022-12-24T08:42:37;9.40;99.90
48686;DHT22;34485;51.536;3.816;2022-12-24T08:45:03;9.30;99.90
48686;DHT22;34485;51.536;3.816;2022-12-24T08:47:28;9.30;99.90
48686;DHT22;34485;51.536;3.816;2022-12-24T08:49:54;9.30;99.90
48686;DHT22;34485;51.536;3.816;2022-12-24T08:52:19;9.30;99.90
48686;DHT22;34485;51.536;3.816;2022-12-24T08:54:45;9.40;99.90
48686;DHT22;34485;51.536;3.816;2022-12-24T08:57:11;9.50;99.90
48686;DHT22;34485;51.536;3.816;2022-12-24T08:59:37;9.50;99.90
48686;DHT22;34485;51.536;3.816;2022-12-24T09:02:03;9.60;99.90
48686;DHT22;34485;51.536;3.816;2022-12-24T09:04:29;9.60;99.90
48686;DHT22;34485;51.536;3.816;2022-12-24T09:06:54;9.60;99.90
48686;DHT22;34485;51.536;3.816;2022-12-24T09:09:20;9.60;99.90
48686;DHT22;34485;51.536;3.816;2022-12-24T09:11:46;9.60;99.90
48686;DHT22;34485;51.536;3.816;2022-12-24T09:14:12;9.60;99.90
48686;DHT22;34485;51.536;3.816;2022-12-24T09:16:38;9.70;99.90
48686;DHT22;34485;51.536;3.816;2022-12-24T09:19:04;9.70;99.90
48686;DHT22;34485;51.536;3.816;2022-12-24T09:21:29;9.70;99.90
48686;DHT22;34485;51.536;3.816;2022-12-24T09:23:55;9.70;99.90
48686;DHT22;34485;51.536;3.816;2022-12-24T09:26:23;9.70;99.90
48686;DHT22;34485;51.536;3.816;2022-12-24T09:28:50;9.70;99.90
48686;DHT22;34485;51.536;3.816;2022-12-24T09:31:17;9.70;99.90
48686;DHT22;34485;51.536;3.816;2022-12-24T09:33:44;9.70;99.90
48686;DHT22;34485;51.536;3.816;2022-12-24T09:36:10;9.70;99.90
48686;DHT22;34485;51.536;3.816;2022-12-24T09:38:37;9.60;99.90
48686;DHT22;34485;51.536;3.816;2022-12-24T09:41:36;9.60;99.90
48686;DHT22;34485;51.536;3.816;2022-12-24T09:47:01;9.60;99.90
48686;DHT22;34485;51.536;3.816;2022-12-24T09:49:39;9.60;99.90
48686;DHT22;34485;51.536;3.816;2022-12-24T09:52:09;9.60;99.90
48686;DHT22;34485;51.536;3.816;2022-12-24T09:54:43;9.60;99.90
48686;DHT22;34485;51.536;3.816;2022-12-24T09:57:22;9.70;99.90
48686;DHT22;34485;51.536;3.816;2022-12-24T09:59:50;9.60;99.90
48686;DHT22;34485;51.536;3.816;2022-12-24T10:02:18;9.60;99.90
48686;DHT22;34485;51.536;3.816;2022-12-24T10:04:45;9.60;99.90
48686;DHT22;34485;51.536;3.816;2022-12-24T10:15:31;9.90;99.90
48686;DHT22;34485;51.536;3.816;2022-12-24T10:21:04;10.10;99.90
48686;DHT22;34485;51.536;3.816;2022-12-24T10:26:38;10.10;99.90
48686;DHT22;34485;51.536;3.816;2022-12-24T10:29:13;10.10;99.90
48686;DHT22;34485;51.536;3.816;2022-12-24T10:31:51;10.10;99.90
48686;DHT22;34485;51.536;3.816;2022-12-24T10:34:22;10.10;99.90
48686;DHT22;34485;51.536;3.816;2022-12-24T10:36:48;10.30;99.90
48686;DHT22;34485;51.536;3.816;2022-12-24T10:39:19;10.40;99.90
48686;DHT22;34485;51.536;3.816;2022-12-24T10:41:48;10.70;99.90
48686;DHT22;34485;51.536;3.816;2022-12-24T10:44:17;10.80;99.90
48686;DHT22;34485;51.536;3.816;2022-12-24T10:46:45;10.80;99.90
48686;DHT22;34485;51.536;3.816;2022-12-24T10:49:19;10.70;99.90
48686;DHT22;34485;51.536;3.816;2022-12-24T10:52:16;10.60;99.90
48686;DHT22;34485;51.536;3.816;2022-12-24T10:57:31;10.70;99.90
48686;DHT22;34485;51.536;3.816;2022-12-24T10:59:57;10.70;99.90
48686;DHT22;34485;51.536;3.816;2022-12-24T11:02:34;10.70;99.90
48686;DHT22;34485;51.536;3.816;2022-12-24T11:05:02;10.80;99.90
48686;DHT22;34485;51.536;3.816;2022-12-24T11:07:30;10.80;99.90
48686;DHT22;34485;51.536;3.816;2022-12-24T11:10:04;10.80;99.90
48686;DHT22;34485;51.536;3.816;2022-12-24T11:12:32;10.70;99.90
48686;DHT22;34485;51.536;3.816;2022-12-24T11:15:17;10.70;99.90
48686;DHT22;34485;51.536;3.816;2022-12-24T11:17:58;10.70;99.90
48686;DHT22;34485;51.536;3.816;2022-12-24T11:20:27;10.60;99.90
48686;DHT22;34485;51.536;3.816;2022-12-24T11:22:54;10.60;99.90
48686;DHT22;34485;51.536;3.816;2022-12-24T11:27:47;10.60;99.90
48686;DHT22;34485;51.536;3.816;2022-12-24T11:33:14;10.70;99.90
48686;DHT22;34485;51.536;3.816;2022-12-24T11:35:46;10.70;99.90
48686;DHT22;34485;51.536;3.816;2022-12-24T11:38:18;10.70;99.90
48686;DHT22;34485;51.536;3.816;2022-12-24T11:40:47;10.70;99.90
48686;DHT22;34485;51.536;3.816;2022-12-24T11:43:20;10.70;99.90
48686;DHT22;34485;51.536;3.816;2022-12-24T11:45:52;10.70;99.90
48686;DHT22;34485;51.536;3.816;2022-12-24T11:48:32;10.70;99.90
48686;DHT22;34485;51.536;3.816;2022-12-24T11:51:00;10.70;99.90
48686;DHT22;34485;51.536;3.816;2022-12-24T11:53:43;10.70;99.90
48686;DHT22;34485;51.536;3.816;2022-12-24T11:56:27;10.80;99.90
48686;DHT22;34485;51.536;3.816;2022-12-24T11:58:58;10.70;99.90
48686;DHT22;34485;51.536;3.816;2022-12-24T12:01:37;10.70;99.90
48686;DHT22;34485;51.536;3.816;2022-12-24T12:04:12;10.70;99.90
48686;DHT22;34485;51.536;3.816;2022-12-24T12:06:51;10.80;99.90
48686;DHT22;34485;51.536;3.816;2022-12-24T12:09:39;10.80;99.90
48686;DHT22;34485;51.536;3.816;2022-12-24T12:12:21;10.80;99.90
48686;DHT22;34485;51.536;3.816;2022-12-24T12:14:57;10.90;99.90
48686;DHT22;34485;51.536;3.816;2022-12-24T12:17:50;10.90;99.90
48686;DHT22;34485;51.536;3.816;2022-12-24T12:20:34;10.90;99.90
48686;DHT22;34485;51.536;3.816;2022-12-24T12:23:27;11.00;99.90
48686;DHT22;34485;51.536;3.816;2022-12-24T12:29:09;10.90;99.90
48686;DHT22;34485;51.536;3.816;2022-12-24T12:31:46;10.90;99.90
48686;DHT22;34485;51.536;3.816;2022-12-24T12:34:35;10.80;99.90
48686;DHT22;34485;51.536;3.816;2022-12-24T12:37:11;10.70;99.90
48686;DHT22;34485;51.536;3.816;2022-12-24T12:39:38;10.70;99.90
48686;DHT22;34485;51.536;3.816;2022-12-24T12:42:08;10.60;99.90
48686;DHT22;34485;51.536;3.816;2022-12-24T12:45:10;10.50;99.90
48686;DHT22;34485;51.536;3.816;2022-12-24T12:58:52;10.70;99.90
48686;DHT22;34485;51.536;3.816;2022-12-24T13:01:28;10.60;99.90
48686;DHT22;34485;51.536;3.816;2022-12-24T13:04:08;10.50;99.90
48686;DHT22;34485;51.536;3.816;2022-12-24T13:20:27;10.30;99.90
48686;DHT22;34485;51.536;3.816;2022-12-24T13:23:39;10.40;99.90
48686;DHT22;34485;51.536;3.816;2022-12-24T13:25:49;10.40;99.90
48686;DHT22;34485;51.536;3.816;2022-12-24T13:31:21;10.40;99.90
48686;DHT22;34485;51.536;3.816;2022-12-24T13:36:08;10.40;99.90
48686;DHT22;34485;51.536;3.816;2022-12-24T13:41:35;10.50;99.90
48686;DHT22;34485;51.536;3.816;2022-12-24T13:46:52;10.60;99.90
48686;DHT22;34485;51.536;3.816;2022-12-24T13:49:34;10.70;99.90
48686;DHT22;34485;51.536;3.816;2022-12-24T13:54:39;10.80;99.90
48686;DHT22;34485;51.536;3.816;2022-12-24T13:57:38;10.80;99.90
48686;DHT22;34485;51.536;3.816;2022-12-24T14:02:47;10.80;99.90
48686;DHT22;34485;51.536;3.816;2022-12-24T14:10:56;10.70;99.90
48686;DHT22;34485;51.536;3.816;2022-12-24T14:18:31;10.50;99.90
48686;DHT22;34485;51.536;3.816;2022-12-24T14:20:59;10.40;99.90
48686;DHT22;34485;51.536;3.816;2022-12-24T14:24:47;10.40;99.90
48686;DHT22;34485;51.536;3.816;2022-12-24T14:26:46;10.30;99.90
48686;DHT22;34485;51.536;3.816;2022-12-24T14:29:27;10.20;99.90
48686;DHT22;34485;51.536;3.816;2022-12-24T14:31:55;10.10;99.90
48686;DHT22;34485;51.536;3.816;2022-12-24T14:34:21;10.00;99.90
48686;DHT22;34485;51.536;3.816;2022-12-24T14:36:49;10.00;99.90
48686;DHT22;34485;51.536;3.816;2022-12-24T14:39:30;10.00;99.90
48686;DHT22;34485;51.536;3.816;2022-12-24T14:45:21;9.90;99.90
48686;DHT22;34485;51.536;3.816;2022-12-24T14:48:08;9.90;99.90
48686;DHT22;34485;51.536;3.816;2022-12-24T14:56:14;9.90;99.90
48686;DHT22;34485;51.536;3.816;2022-12-24T14:58:42;10.00;99.90
48686;DHT22;34485;51.536;3.816;2022-12-24T15:01:30;10.00;99.90
48686;DHT22;34485;51.536;3.816;2022-12-24T15:11:47;9.90;99.90
48686;DHT22;34485;51.536;3.816;2022-12-24T15:14:14;9.90;99.90
48686;DHT22;34485;51.536;3.816;2022-12-24T15:16:41;9.90;99.90
48686;DHT22;34485;51.536;3.816;2022-12-24T15:19:40;9.90;99.90
48686;DHT22;34485;51.536;3.816;2022-12-24T15:22:19;9.90;99.90
48686;DHT22;34485;51.536;3.816;2022-12-24T15:24:46;10.00;99.90
48686;DHT22;34485;51.536;3.816;2022-12-24T15:27:15;10.00;99.90
48686;DHT22;34485;51.536;3.816;2022-12-24T15:29:44;10.00;99.90
48686;DHT22;34485;51.536;3.816;2022-12-24T15:32:13;10.00;99.90
48686;DHT22;34485;51.536;3.816;2022-12-24T15:34:41;9.90;99.90
48686;DHT22;34485;51.536;3.816;2022-12-24T15:37:20;9.90;99.90
48686;DHT22;34485;51.536;3.816;2022-12-24T15:40:09;9.90;99.90
48686;DHT22;34485;51.536;3.816;2022-12-24T15:42:40;9.90;99.90
48686;DHT22;34485;51.536;3.816;2022-12-24T15:45:19;9.90;99.90
48686;DHT22;34485;51.536;3.816;2022-12-24T15:47:50;9.90;99.90
48686;DHT22;34485;51.536;3.816;2022-12-24T15:50:28;9.90;99.90
48686;DHT22;34485;51.536;3.816;2022-12-24T15:52:59;9.90;99.90
48686;DHT22;34485;51.536;3.816;2022-12-24T15:56:01;9.90;99.90
48686;DHT22;34485;51.536;3.816;2022-12-24T15:58:41;9.90;99.90
48686;DHT22;34485;51.536;3.816;2022-12-24T16:03:56;9.80;99.90
48686;DHT22;34485;51.536;3.816;2022-12-24T16:06:23;9.70;99.90
48686;DHT22;34485;51.536;3.816;2022-12-24T16:08:48;9.70;99.90
48686;DHT22;34485;51.536;3.816;2022-12-24T16:11:24;9.60;99.90
48686;DHT22;34485;51.536;3.816;2022-12-24T16:16:40;9.50;99.90
48686;DHT22;34485;51.536;3.816;2022-12-24T16:19:20;9.50;99.90
48686;DHT22;34485;51.536;3.816;2022-12-24T16:21:53;9.50;99.90
48686;DHT22;34485;51.536;3.816;2022-12-24T16:24:28;9.40;99.90
48686;DHT22;34485;51.536;3.816;2022-12-24T16:26:55;9.40;99.90
48686;DHT22;34485;51.536;3.816;2022-12-24T16:29:21;9.30;99.90
48686;DHT22;34485;51.536;3.816;2022-12-24T16:31:57;9.30;99.90
48686;DHT22;34485;51.536;3.816;2022-12-24T16:34:28;9.30;99.90
48686;DHT22;34485;51.536;3.816;2022-12-24T16:36:55;9.30;99.90
48686;DHT22;34485;51.536;3.816;2022-12-24T16:39:28;9.30;99.90
48686;DHT22;34485;51.536;3.816;2022-12-24T16:41:57;9.30;99.90
48686;DHT22;34485;51.536;3.816;2022-12-24T16:44:51;9.30;99.90
48686;DHT22;34485;51.536;3.816;2022-12-24T16:47:20;9.30;99.90
48686;DHT22;34485;51.536;3.816;2022-12-24T16:49:46;9.30;99.90
48686;DHT22;34485;51.536;3.816;2022-12-24T16:52:41;9.40;99.90
48686;DHT22;34485;51.536;3.816;2022-12-24T16:55:11;9.40;99.90
48686;DHT22;34485;51.536;3.816;2022-12-24T16:57:39;9.40;99.90
48686;DHT22;34485;51.536;3.816;2022-12-24T17:00:13;9.40;99.90
48686;DHT22;34485;51.536;3.816;2022-12-24T17:02:39;9.40;99.90
48686;DHT22;34485;51.536;3.816;2022-12-24T17:05:05;9.40;99.90
48686;DHT22;34485;51.536;3.816;2022-12-24T17:07:30;9.30;99.90
48686;DHT22;34485;51.536;3.816;2022-12-24T17:09:56;9.30;99.90
48686;DHT22;34485;51.536;3.816;2022-12-24T17:12:22;9.20;99.90
48686;DHT22;34485;51.536;3.816;2022-12-24T17:14:47;9.30;99.90
48686;DHT22;34485;51.536;3.816;2022-12-24T17:17:27;9.20;99.90
48686;DHT22;34485;51.536;3.816;2022-12-24T17:19:54;9.20;99.90
48686;DHT22;34485;51.536;3.816;2022-12-24T17:22:20;9.10;99.90
48686;DHT22;34485;51.536;3.816;2022-12-24T17:24:46;9.10;99.90
48686;DHT22;34485;51.536;3.816;2022-12-24T17:27:12;9.10;99.90
48686;DHT22;34485;51.536;3.816;2022-12-24T17:29:38;9.20;99.90
48686;DHT22;34485;51.536;3.816;2022-12-24T17:32:03;9.20;99.90
48686;DHT22;34485;51.536;3.816;2022-12-24T17:34:29;9.20;99.90
48686;DHT22;34485;51.536;3.816;2022-12-24T17:36:55;9.10;99.90
48686;DHT22;34485;51.536;3.816;2022-12-24T17:39:20;9.10;99.90
48686;DHT22;34485;51.536;3.816;2022-12-24T17:41:46;9.00;99.90
48686;DHT22;34485;51.536;3.816;2022-12-24T17:44:13;9.00;99.90
48686;DHT22;34485;51.536;3.816;2022-12-24T17:46:38;9.00;99.90
48686;DHT22;34485;51.536;3.816;2022-12-24T17:49:04;8.90;99.90
48686;DHT22;34485;51.536;3.816;2022-12-24T17:51:30;8.90;99.90
48686;DHT22;34485;51.536;3.816;2022-12-24T17:53:58;9.00;99.90
48686;DHT22;34485;51.536;3.816;2022-12-24T17:56:24;9.00;99.90
48686;DHT22;34485;51.536;3.816;2022-12-24T17:58:49;9.00;99.90
48686;DHT22;34485;51.536;3.816;2022-12-24T18:01:18;9.00;99.90
48686;DHT22;34485;51.536;3.816;2022-12-24T18:03:45;9.00;99.90
48686;DHT22;34485;51.536;3.816;2022-12-24T18:06:12;9.10;99.90